KQEN

Daegwallyeong Rw

Daegwallyeong Rw, South Korea
METAR KQEN 181630Z AUTO 27007KT 9999 SCT120 BKN160 00/M06 A3007 RMK A02 TSNO
Observed Flight Rules
Nov-18 @ 16:30 UTC (12 minutes ago) Visual Flight Rules
Wind Visibility Clouds
270° at 7 knots 10,000+ meters
  • Scattered at 12,000' AGL
  • Broken at 16,000' AGL
Temperatures Readings
Current 0°C / 32°F
Dewpoint -6°C / 21°F
Humidity 64%
Altimeter 30.07" Hg
Pressure 1018 hPa
METAR KQEN 181630Z AUTO 27007KT 9999 SCT120 BKN160 00/M06 A3007 RMK A02 TSNO
Observed Flight Rules
Nov-18 @ 16:30 UTC
(12 minutes ago)
VFR
Wind Visibility
270° at 7 knots 10,000+ meters
Clouds
  • Scattered at 12,000' AGL
  • Broken at 16,000' AGL
Temperature Dewpoint
0°C / 32°F -6°C / 21°F
Humidity Altimeter Pressure
64% 30.07" Hg 1018 hPa